Terminal Aerodrome Forecast
Issued by NWS Wilmington, OH

Current Version | Previous Version | Graphics & Text | Print | Product List | Glossary On
Versions: 1 2 3 4 5 6 7 8 9 10 11 12 13 14 15 16 17 18 19
000
FTUS41 KILN 171123
TAFCMH
TAF
KCMH 171123Z 1712/1812 VRB04KT P6SM OVC022
     FM171400 12004KT P6SM OVC018
     FM171900 15007KT P6SM BKN250
     FM180300 16010KT P6SM VCSH BKN110
     FM180600 18012G22KT 6SM -SHRA OVC040 WS020/21045KT
     FM180900 18014G24KT 4SM -SHRA BR OVC025 WS020/21045KT=

USA.gov is the U.S. government's official web portal to all federal, state and local government web resources and services.